Terminal Aerodrome Forecast
Issued by NWS

Home | Current Version | Previous Version | Text Only | Print | Product List | Glossary On
Versions: 1 2 3 4 5 6 7 8 9 10 11 12 13 14
856
FTUS43 KJKL 061120
TAFSJS
TAF
KSJS 061120Z 0612/0712 33003KT P6SM VCSH BKN040
     FM061300 33007KT P6SM SCT100
     FM070100 VRB04KT P6SM SCT150=

USA.gov is the U.S. government's official web portal to all federal, state and local government web resources and services.